createdAt,value
2022-12-23T00:01:26.114Z,99598.60
2022-12-23T00:03:58.607Z,99594.60
2022-12-23T00:06:27.182Z,99592.40
2022-12-23T00:08:58.388Z,99594.20
2022-12-23T00:11:28.738Z,99594.40
2022-12-23T00:14:21.081Z,99601.00
2022-12-23T00:16:51.036Z,99599.20
2022-12-23T00:19:19.225Z,99611.60
2022-12-23T00:21:48.553Z,99607.40
2022-12-23T00:24:16.895Z,99604.40
2022-12-23T00:26:44.838Z,99606.80
2022-12-23T00:29:12.619Z,99613.40
2022-12-23T00:31:40.430Z,99620.00
2022-12-23T00:34:12.039Z,99620.40
2022-12-23T00:36:40.777Z,99614.60
2022-12-23T00:39:31.272Z,99614.80
2022-12-23T00:42:17.562Z,99613.80
2022-12-23T00:44:45.426Z,99611.80
2022-12-23T00:47:33.268Z,99610.80
2022-12-23T00:50:01.051Z,99611.60
2022-12-23T00:52:28.801Z,99608.40
2022-12-23T00:54:56.466Z,99611.60
2022-12-23T00:57:24.161Z,99621.40
2022-12-23T00:59:51.871Z,99633.00
2022-12-23T01:02:38.381Z,99645.00
2022-12-23T01:05:26.080Z,99645.20
2022-12-23T01:07:55.772Z,99648.40
2022-12-23T01:10:23.505Z,99650.00
2022-12-23T01:12:51.717Z,99644.40
2022-12-23T01:15:19.423Z,99640.00
2022-12-23T01:17:47.108Z,99641.80
2022-12-23T01:20:14.919Z,99633.80
2022-12-23T01:22:42.662Z,99638.60
2022-12-23T01:25:11.391Z,99631.20
2022-12-23T01:27:39.450Z,99618.60
2022-12-23T01:30:08.370Z,99611.40
2022-12-23T01:32:36.216Z,99609.40
2022-12-23T01:35:04.347Z,99608.80
2022-12-23T01:37:32.237Z,99608.40
2022-12-23T01:39:59.984Z,99609.20
2022-12-23T01:42:46.730Z,99620.60
2022-12-23T01:45:32.751Z,99620.40
2022-12-23T01:48:10.091Z,99618.80
2022-12-23T01:50:49.105Z,99623.20
2022-12-23T01:53:28.227Z,99614.60
2022-12-23T01:56:03.627Z,99611.80
2022-12-23T01:58:41.878Z,99607.80
2022-12-23T02:01:29.742Z,99599.00
2022-12-23T02:04:02.751Z,99606.40
2022-12-23T02:07:05.156Z,99600.60
2022-12-23T02:09:39.229Z,99603.60
2022-12-23T02:12:43.716Z,99614.40
2022-12-23T02:15:34.661Z,99616.20
2022-12-23T02:18:26.800Z,99616.60
2022-12-23T02:21:11.242Z,99623.20
2022-12-23T02:24:28.671Z,99618.60
2022-12-23T02:27:55.539Z,99622.60
2022-12-23T02:30:45.902Z,99621.20
2022-12-23T02:33:30.216Z,99618.60
2022-12-23T02:36:25.282Z,99622.40
2022-12-23T02:39:15.217Z,99615.40
2022-12-23T02:42:05.852Z,99594.00
2022-12-23T02:44:48.679Z,99585.60
2022-12-23T02:47:22.885Z,99578.20
2022-12-23T02:49:57.048Z,99577.80
2022-12-23T02:52:34.327Z,99575.40
2022-12-23T02:55:11.710Z,99579.80
2022-12-23T02:57:46.512Z,99596.60
2022-12-23T03:00:15.620Z,99597.20
2022-12-23T03:02:45.232Z,99595.60
2022-12-23T03:05:34.643Z,99596.60
2022-12-23T03:08:07.505Z,99591.40
2022-12-23T03:11:06.282Z,99597.80
2022-12-23T03:13:59.675Z,99593.20
2022-12-23T03:16:46.723Z,99591.40
2022-12-23T03:19:41.973Z,99604.20
2022-12-23T03:22:32.407Z,99603.40
2022-12-23T03:25:19.132Z,99610.60
2022-12-23T03:28:00.215Z,99619.40
2022-12-23T03:30:32.719Z,99632.40
2022-12-23T03:33:24.055Z,99624.80
2022-12-23T03:36:00.462Z,99617.40
2022-12-23T03:38:33.772Z,99619.60
2022-12-23T03:41:11.337Z,99617.80
2022-12-23T03:43:51.291Z,99617.20
2022-12-23T03:46:32.637Z,99623.80
2022-12-23T03:49:10.276Z,99621.00
2022-12-23T03:51:52.535Z,99621.80
2022-12-23T03:54:30.043Z,99617.80
2022-12-23T03:57:03.053Z,99607.60
2022-12-23T03:59:35.782Z,99600.80
2022-12-23T04:02:09.493Z,99593.80
2022-12-23T04:04:58.453Z,99588.80
2022-12-23T04:07:37.023Z,99583.60
2022-12-23T04:10:05.952Z,99579.80
2022-12-23T04:12:33.814Z,99566.60
2022-12-23T04:15:02.034Z,99559.80
2022-12-23T04:17:32.751Z,99546.40
2022-12-23T04:20:00.579Z,99539.00
2022-12-23T04:22:28.467Z,99533.20
2022-12-23T04:24:56.191Z,99536.60
2022-12-23T04:27:23.876Z,99527.20
2022-12-23T04:29:51.582Z,99547.00
2022-12-23T04:32:19.258Z,99546.00
2022-12-23T04:34:46.987Z,99539.60
2022-12-23T04:37:14.709Z,99551.20
2022-12-23T04:39:42.413Z,99553.20
2022-12-23T04:42:10.638Z,99568.40
2022-12-23T04:44:38.415Z,99567.60
2022-12-23T04:47:06.241Z,99554.40
2022-12-23T04:49:34.066Z,99559.00
2022-12-23T04:52:02.503Z,99572.40
2022-12-23T04:54:30.476Z,99563.80
2022-12-23T04:56:58.337Z,99547.00
2022-12-23T04:59:26.318Z,99536.00
2022-12-23T05:01:54.268Z,99530.00
2022-12-23T05:04:22.182Z,99528.40
2022-12-23T05:06:50.101Z,99529.80
2022-12-23T05:09:18.061Z,99521.20
2022-12-23T05:11:45.874Z,99524.20
2022-12-23T05:14:13.782Z,99528.60
2022-12-23T05:16:41.675Z,99517.40
2022-12-23T05:19:11.127Z,99513.00
2022-12-23T05:21:38.856Z,99510.60
2022-12-23T05:24:07.005Z,99499.00
2022-12-23T05:26:34.714Z,99494.80
2022-12-23T05:29:02.495Z,99477.80
2022-12-23T05:31:30.378Z,99472.20
2022-12-23T05:34:04.094Z,99481.00
2022-12-23T05:36:33.890Z,99470.60
2022-12-23T05:39:01.763Z,99467.20
2022-12-23T05:41:29.568Z,99463.40
2022-12-23T05:43:57.359Z,99463.20
2022-12-23T05:46:27.018Z,99459.60
2022-12-23T05:48:55.246Z,99447.00
2022-12-23T05:51:22.976Z,99446.60
2022-12-23T05:53:50.785Z,99440.60
2022-12-23T05:56:18.636Z,99423.60
2022-12-23T05:58:46.385Z,99405.80
2022-12-23T06:01:15.716Z,99407.20
2022-12-23T06:03:43.614Z,99416.80
2022-12-23T06:06:12.501Z,99426.20
2022-12-23T06:08:40.209Z,99423.20
2022-12-23T06:11:08.081Z,99413.80
2022-12-23T06:13:35.787Z,99403.40
2022-12-23T06:16:03.896Z,99386.40
2022-12-23T06:18:31.647Z,99371.80
2022-12-23T06:20:59.361Z,99360.80
2022-12-23T06:23:27.051Z,99354.40
2022-12-23T06:26:03.446Z,99361.20
2022-12-23T06:28:31.227Z,99348.60
2022-12-23T06:30:59.236Z,99361.80
2022-12-23T06:33:27.090Z,99362.20
2022-12-23T06:35:54.847Z,99352.80
2022-12-23T06:38:22.702Z,99356.80
2022-12-23T06:40:50.529Z,99347.60
2022-12-23T06:43:18.486Z,99338.40
2022-12-23T06:45:48.634Z,99320.60
2022-12-23T06:48:17.559Z,99324.20
2022-12-23T06:50:45.721Z,99324.40
2022-12-23T06:53:13.432Z,99316.20
2022-12-23T06:55:41.209Z,99313.80
2022-12-23T06:58:09.170Z,99306.80
2022-12-23T07:00:36.953Z,99303.80
2022-12-23T07:03:05.021Z,99295.20
2022-12-23T07:05:37.608Z,99278.80
2022-12-23T07:08:06.137Z,99260.80
2022-12-23T07:10:34.763Z,99256.80
2022-12-23T07:13:02.509Z,99257.00
2022-12-23T07:15:30.295Z,99261.20
2022-12-23T07:17:58.022Z,99261.40
2022-12-23T07:20:25.759Z,99251.40
2022-12-23T07:22:57.393Z,99245.40
2022-12-23T07:25:25.519Z,99243.20
2022-12-23T07:27:56.554Z,99229.80
2022-12-23T07:30:24.623Z,99227.20
2022-12-23T07:32:53.056Z,99239.80
2022-12-23T07:35:20.793Z,99248.60
2022-12-23T07:37:54.018Z,99249.40
2022-12-23T07:40:23.707Z,99246.00
2022-12-23T07:42:56.780Z,99253.80
2022-12-23T07:45:26.435Z,99254.00
2022-12-23T07:47:57.310Z,99255.60
2022-12-23T07:50:26.667Z,99250.40
2022-12-23T07:52:54.926Z,99238.20
2022-12-23T07:55:22.870Z,99236.20
2022-12-23T07:57:52.767Z,99225.00
2022-12-23T08:00:21.288Z,99214.40
2022-12-23T08:02:49.279Z,99205.00
2022-12-23T08:05:17.347Z,99190.60
2022-12-23T08:07:45.247Z,99177.80
2022-12-23T08:10:13.091Z,99165.40
2022-12-23T08:12:40.904Z,99156.60
2022-12-23T08:15:09.311Z,99146.60
2022-12-23T08:17:37.052Z,99138.60
2022-12-23T08:20:05.447Z,99127.60
2022-12-23T08:22:33.144Z,99121.80
2022-12-23T08:25:00.918Z,99121.40
2022-12-23T08:27:28.759Z,99113.40
2022-12-23T08:29:56.477Z,99111.20
2022-12-23T08:32:27.640Z,99119.40
2022-12-23T08:34:57.993Z,99127.80
2022-12-23T08:37:25.848Z,99133.00
2022-12-23T08:39:53.636Z,99133.20
2022-12-23T08:42:21.364Z,99130.80
2022-12-23T08:44:49.077Z,99127.60
2022-12-23T08:47:16.894Z,99117.00
2022-12-23T08:49:44.606Z,99111.00
2022-12-23T08:52:12.648Z,99103.40
2022-12-23T08:54:40.488Z,99094.20
2022-12-23T08:57:08.182Z,99092.20
2022-12-23T08:59:35.894Z,99096.00
2022-12-23T09:02:04.633Z,99106.20
2022-12-23T09:04:32.515Z,99104.80
2022-12-23T09:07:00.264Z,99104.80
2022-12-23T09:09:28.093Z,99105.40
2022-12-23T09:11:55.941Z,99093.60
2022-12-23T09:14:23.709Z,99074.00
2022-12-23T09:16:52.473Z,99040.60
2022-12-23T09:19:20.461Z,98983.60
2022-12-23T09:21:48.238Z,98983.20
2022-12-23T09:24:15.973Z,98990.80
2022-12-23T09:26:43.766Z,98995.40
2022-12-23T09:29:11.498Z,98990.80
2022-12-23T09:31:39.333Z,99006.00
2022-12-23T09:34:07.138Z,98991.00
2022-12-23T09:36:34.926Z,98993.80
2022-12-23T09:39:03.597Z,98997.80
2022-12-23T09:42:18.505Z,98993.40
2022-12-23T09:45:24.516Z,98991.00
2022-12-23T09:47:56.617Z,98984.40
2022-12-23T09:50:33.591Z,98981.00
2022-12-23T09:53:08.075Z,98979.60
2022-12-23T09:55:54.984Z,98973.00
2022-12-23T09:58:52.645Z,98980.60
2022-12-23T10:01:44.852Z,98978.20
2022-12-23T10:04:37.957Z,98980.20
2022-12-23T10:07:05.706Z,98998.80
2022-12-23T10:09:39.799Z,99012.40
2022-12-23T10:12:43.904Z,99013.00
2022-12-23T10:15:39.036Z,98999.40
2022-12-23T10:18:41.100Z,98984.60
2022-12-23T10:21:24.674Z,98997.00
2022-12-23T10:23:55.318Z,98989.80
2022-12-23T10:26:31.296Z,98988.60
2022-12-23T10:29:18.743Z,98997.60
2022-12-23T10:32:17.602Z,98992.20
2022-12-23T10:35:10.259Z,98992.60
2022-12-23T10:37:51.184Z,98989.40
2022-12-23T10:40:33.044Z,98997.40
2022-12-23T10:43:24.772Z,98994.80
2022-12-23T10:46:31.144Z,98990.80
2022-12-23T10:49:32.952Z,98989.80
2022-12-23T10:52:11.886Z,98991.00
2022-12-23T10:54:43.964Z,98990.20
2022-12-23T10:57:13.272Z,98994.60
2022-12-23T10:59:41.394Z,98993.80
2022-12-23T11:02:11.989Z,98995.00
2022-12-23T11:04:47.648Z,98990.60
2022-12-23T11:10:28.623Z,98982.40
2022-12-23T11:12:56.383Z,98978.00
2022-12-23T11:15:38.734Z,98984.20
2022-12-23T11:18:12.265Z,98981.40
2022-12-23T11:20:48.479Z,98985.40
2022-12-23T11:23:30.441Z,98972.00
2022-12-23T11:26:12.809Z,98973.40
2022-12-23T11:28:53.326Z,98963.60
2022-12-23T11:31:35.596Z,98964.00
2022-12-23T11:34:14.221Z,98955.20
2022-12-23T11:36:42.523Z,98965.20
2022-12-23T11:39:10.150Z,98965.80
2022-12-23T11:41:44.338Z,98963.60
2022-12-23T11:44:28.135Z,98962.00
2022-12-23T11:46:56.393Z,98960.80
2022-12-23T11:49:27.469Z,98963.40
2022-12-23T11:52:13.515Z,98967.00
2022-12-23T11:54:52.837Z,98959.00
2022-12-23T11:57:44.027Z,98959.40
2022-12-23T12:00:41.505Z,98957.20
2022-12-23T12:03:20.741Z,98951.40
2022-12-23T12:06:00.555Z,98951.40
2022-12-23T12:08:35.530Z,98952.60
2022-12-23T12:11:18.461Z,98954.20
2022-12-23T12:13:51.649Z,98947.60
2022-12-23T12:16:47.574Z,98948.40
2022-12-23T12:19:31.720Z,98945.40
2022-12-23T12:22:11.374Z,98940.20
2022-12-23T12:24:47.545Z,98944.00
2022-12-23T12:27:20.775Z,98943.80
2022-12-23T12:29:58.452Z,98951.80
2022-12-23T12:32:33.091Z,98950.40
2022-12-23T12:35:07.153Z,98951.60
2022-12-23T12:37:59.433Z,98954.20
2022-12-23T12:40:35.148Z,98951.00
2022-12-23T12:43:20.992Z,98951.60
2022-12-23T12:46:03.987Z,98954.20
2022-12-23T12:48:55.697Z,98954.40
2022-12-23T12:52:11.818Z,98960.20
2022-12-23T12:54:56.322Z,98959.80
2022-12-23T12:57:25.182Z,98965.60
2022-12-23T13:00:03.618Z,98965.20
2022-12-23T13:03:26.223Z,98967.80
2022-12-23T13:06:13.875Z,98970.40
2022-12-23T13:09:20.860Z,98967.80
2022-12-23T13:12:14.655Z,98970.60
2022-12-23T13:15:39.832Z,98968.00
2022-12-23T13:18:31.050Z,98971.80
2022-12-23T13:21:27.241Z,98982.40
2022-12-23T13:24:05.992Z,98977.20
2022-12-23T13:26:46.387Z,98976.80
2022-12-23T13:29:53.101Z,98978.80
2022-12-23T13:32:38.863Z,98980.20
2022-12-23T13:35:18.904Z,98981.80
2022-12-23T13:37:57.103Z,98983.00
2022-12-23T13:40:47.367Z,98977.80
2022-12-23T13:43:20.839Z,98979.00
2022-12-23T13:45:52.740Z,98988.80
2022-12-23T13:48:36.287Z,98988.60
2022-12-23T13:51:15.429Z,98991.00
2022-12-23T13:54:03.958Z,98998.80
2022-12-23T13:57:16.499Z,99000.00
2022-12-23T14:00:05.981Z,99009.20
2022-12-23T14:02:43.643Z,99005.80
2022-12-23T14:05:45.187Z,98997.20
2022-12-23T14:08:19.022Z,99006.20
2022-12-23T14:11:12.448Z,99016.00
2022-12-23T14:13:52.903Z,99019.60
2022-12-23T14:17:00.419Z,99020.00
2022-12-23T14:19:50.471Z,99034.40
2022-12-23T14:22:55.617Z,99048.20
2022-12-23T14:25:33.512Z,99043.80
2022-12-23T14:28:29.012Z,99046.40
2022-12-23T14:30:56.971Z,99052.20
2022-12-23T14:33:31.351Z,99061.20
2022-12-23T14:36:25.129Z,99068.60
2022-12-23T14:39:33.956Z,99079.00
2022-12-23T14:42:06.738Z,99078.00
2022-12-23T14:44:35.957Z,99088.20
2022-12-23T14:47:36.076Z,99089.20
2022-12-23T14:50:33.963Z,99089.20
2022-12-23T14:53:24.870Z,99094.80
2022-12-23T14:56:21.946Z,99099.00
2022-12-23T14:59:09.928Z,99098.80
2022-12-23T15:01:51.384Z,99106.00
2022-12-23T15:04:44.445Z,99116.00
2022-12-23T15:07:44.079Z,99121.20
2022-12-23T15:10:24.003Z,99127.80
2022-12-23T15:12:59.495Z,99123.60
2022-12-23T15:15:30.088Z,99126.00
2022-12-23T15:18:13.163Z,99131.60
2022-12-23T15:20:40.975Z,99129.80
2022-12-23T15:23:15.317Z,99125.00
2022-12-23T15:25:51.265Z,99122.40
2022-12-23T15:28:23.659Z,99126.00
2022-12-23T15:30:55.500Z,99133.80
2022-12-23T15:34:01.627Z,99136.20
2022-12-23T15:36:32.101Z,99142.60
2022-12-23T15:39:01.631Z,99143.60
2022-12-23T15:41:29.435Z,99157.80
2022-12-23T15:44:01.599Z,99163.00
2022-12-23T15:46:31.921Z,99173.60
2022-12-23T15:48:59.785Z,99177.20
2022-12-23T15:52:07.193Z,99180.40
2022-12-23T15:54:39.125Z,99180.40
2022-12-23T15:57:06.923Z,99183.40
2022-12-23T15:59:38.837Z,99187.60
2022-12-23T16:05:31.805Z,99184.00
2022-12-23T16:08:28.916Z,99193.40
2022-12-23T16:11:00.758Z,99184.00
2022-12-23T16:13:28.510Z,99188.80
2022-12-23T16:16:37.211Z,99202.00
2022-12-23T16:19:06.397Z,99211.40
2022-12-23T16:21:36.850Z,99216.40
2022-12-23T16:24:09.599Z,99217.20
2022-12-23T16:26:43.393Z,99216.60
2022-12-23T16:29:12.105Z,99235.40
2022-12-23T16:31:45.697Z,99236.40
2022-12-23T16:34:18.184Z,99240.00
2022-12-23T16:36:46.028Z,99239.40
2022-12-23T16:39:22.324Z,99249.00
2022-12-23T16:41:50.811Z,99246.00
2022-12-23T16:44:18.653Z,99248.40
2022-12-23T16:46:50.959Z,99257.40
2022-12-23T16:49:27.962Z,99271.20
2022-12-23T16:51:59.432Z,99271.00
2022-12-23T16:54:27.207Z,99279.40
2022-12-23T16:56:54.952Z,99278.00
2022-12-23T16:59:24.819Z,99293.40
2022-12-23T17:01:55.519Z,99298.60
2022-12-23T17:04:27.282Z,99301.80
2022-12-23T17:06:54.992Z,99308.60
2022-12-23T17:09:22.893Z,99306.20
2022-12-23T17:11:54.166Z,99311.60
2022-12-23T17:14:25.369Z,99314.20
2022-12-23T17:16:53.258Z,99319.00
2022-12-23T17:19:27.767Z,99321.20
2022-12-23T17:22:02.537Z,99322.60
2022-12-23T17:24:30.359Z,99327.20
2022-12-23T17:26:58.256Z,99331.00
2022-12-23T17:29:26.095Z,99333.60
2022-12-23T17:31:54.348Z,99344.80
2022-12-23T17:34:24.655Z,99346.40
2022-12-23T17:36:52.833Z,99349.20
2022-12-23T17:39:22.153Z,99347.20
2022-12-23T17:41:51.208Z,99346.00
2022-12-23T17:44:19.583Z,99351.00
2022-12-23T17:46:47.985Z,99358.80
2022-12-23T17:49:15.695Z,99359.20
2022-12-23T17:51:43.709Z,99365.20
2022-12-23T17:54:31.784Z,99360.20
2022-12-23T17:56:59.519Z,99361.80
2022-12-23T17:59:27.375Z,99365.20
2022-12-23T18:01:55.200Z,99368.20
2022-12-23T18:04:23.143Z,99379.60
2022-12-23T18:06:50.834Z,99384.80
2022-12-23T18:09:20.838Z,99388.00
2022-12-23T18:11:48.617Z,99383.20
2022-12-23T18:14:26.718Z,99388.80
2022-12-23T18:16:54.708Z,99398.60
2022-12-23T18:19:22.572Z,99402.80
2022-12-23T18:21:52.088Z,99407.20
2022-12-23T18:24:19.938Z,99405.80
2022-12-23T18:26:47.814Z,99411.40
2022-12-23T18:29:15.535Z,99418.00
2022-12-23T18:31:51.604Z,99419.20
2022-12-23T18:34:21.211Z,99412.00
2022-12-23T18:36:51.535Z,99421.20
2022-12-23T18:39:20.069Z,99426.60
2022-12-23T18:41:47.934Z,99433.00
2022-12-23T18:44:21.013Z,99432.80
2022-12-23T18:46:49.578Z,99447.40
2022-12-23T18:49:17.425Z,99458.60
2022-12-23T18:51:46.148Z,99464.20
2022-12-23T18:54:16.054Z,99469.00
2022-12-23T18:56:44.976Z,99471.80
2022-12-23T18:59:21.421Z,99468.20
2022-12-23T19:01:56.483Z,99477.80
2022-12-23T19:04:25.785Z,99477.20
2022-12-23T19:06:55.719Z,99482.60
2022-12-23T19:09:25.494Z,99485.60
2022-12-23T19:11:54.341Z,99483.80
2022-12-23T19:14:22.824Z,99492.20
2022-12-23T19:16:52.375Z,99497.60
2022-12-23T19:19:21.926Z,99501.20
2022-12-23T19:21:49.778Z,99503.40
2022-12-23T19:24:17.991Z,99498.00
2022-12-23T19:26:45.759Z,99498.20
2022-12-23T19:29:13.483Z,99504.80
2022-12-23T19:31:41.560Z,99509.20
2022-12-23T19:34:14.612Z,99512.60
2022-12-23T19:36:44.387Z,99518.00
2022-12-23T19:39:16.343Z,99519.40
2022-12-23T19:41:45.696Z,99517.00
2022-12-23T19:44:14.565Z,99514.40
2022-12-23T19:46:42.500Z,99515.20
2022-12-23T19:49:15.938Z,99518.20
2022-12-23T19:51:45.462Z,99521.00
2022-12-23T19:54:13.176Z,99522.20
2022-12-23T19:56:41.443Z,99520.80
2022-12-23T19:59:09.249Z,99521.80
2022-12-23T20:01:37.011Z,99528.40
2022-12-23T20:04:05.021Z,99529.00
2022-12-23T20:06:38.257Z,99529.60
2022-12-23T20:09:09.529Z,99536.00
2022-12-23T20:11:42.620Z,99539.60
2022-12-23T20:14:12.426Z,99543.20
2022-12-23T20:16:40.963Z,99553.60
2022-12-23T20:19:09.219Z,99549.80
2022-12-23T20:21:37.707Z,99560.40
2022-12-23T20:24:06.959Z,99563.60
2022-12-23T20:26:34.852Z,99575.60
2022-12-23T20:29:02.838Z,99573.60
2022-12-23T20:31:35.424Z,99571.60
2022-12-23T20:34:08.867Z,99575.20
2022-12-23T20:36:36.842Z,99576.60
2022-12-23T20:39:05.848Z,99575.60
2022-12-23T20:41:34.125Z,99575.00
2022-12-23T20:44:33.203Z,99572.60
2022-12-23T20:46:50.146Z,99574.80
2022-12-23T20:49:17.935Z,99571.60
2022-12-23T20:51:45.612Z,99577.80
2022-12-23T20:54:13.411Z,99578.80
2022-12-23T20:56:41.122Z,99581.40
2022-12-23T20:59:08.833Z,99589.40
2022-12-23T21:01:40.286Z,99591.80
2022-12-23T21:04:11.840Z,99593.40
2022-12-23T21:06:40.333Z,99590.60
2022-12-23T21:09:11.726Z,99590.00
2022-12-23T21:11:43.033Z,99589.00
2022-12-23T21:14:12.597Z,99589.60
2022-12-23T21:16:41.831Z,99593.80
2022-12-23T21:19:19.879Z,99597.20
2022-12-23T21:21:49.201Z,99601.40
2022-12-23T21:24:18.526Z,99609.00
2022-12-23T21:26:55.477Z,99610.00
2022-12-23T21:29:25.031Z,99613.40
2022-12-23T21:31:52.933Z,99604.60
2022-12-23T21:34:20.842Z,99601.80
2022-12-23T21:36:48.682Z,99606.40
2022-12-23T21:39:16.774Z,99603.80
2022-12-23T21:41:45.744Z,99608.00
2022-12-23T21:44:14.730Z,99611.60
2022-12-23T21:46:42.790Z,99610.40
2022-12-23T21:49:10.885Z,99613.40
2022-12-23T21:51:40.852Z,99616.60
2022-12-23T21:54:11.608Z,99622.00
2022-12-23T21:56:41.104Z,99619.80
2022-12-23T21:59:14.399Z,99616.40
2022-12-23T22:01:43.455Z,99614.60
2022-12-23T22:04:11.742Z,99621.20
2022-12-23T22:06:45.855Z,99628.80
2022-12-23T22:09:17.695Z,99634.60
2022-12-23T22:11:47.030Z,99634.80
2022-12-23T22:14:18.876Z,99636.60
2022-12-23T22:16:46.684Z,99638.20
2022-12-23T22:19:15.172Z,99640.40
2022-12-23T22:21:42.992Z,99638.40
2022-12-23T22:24:11.579Z,99630.80
2022-12-23T22:26:40.762Z,99630.60
2022-12-23T22:29:09.925Z,99630.80
2022-12-23T22:31:47.467Z,99635.20
2022-12-23T22:34:22.352Z,99642.60
2022-12-23T22:36:50.402Z,99644.80
2022-12-23T22:39:21.885Z,99639.20
2022-12-23T22:41:51.330Z,99637.00
2022-12-23T22:44:20.236Z,99636.60
2022-12-23T22:46:48.458Z,99642.60
2022-12-23T22:49:16.920Z,99637.20
2022-12-23T22:51:45.100Z,99639.80
2022-12-23T22:54:12.880Z,99639.20
2022-12-23T22:56:40.689Z,99640.60
2022-12-23T22:59:20.933Z,99647.20
2022-12-23T23:01:50.866Z,99651.80
2022-12-23T23:04:19.185Z,99652.60
2022-12-23T23:06:46.984Z,99657.20
2022-12-23T23:09:19.129Z,99658.80
2022-12-23T23:11:47.835Z,99669.20
2022-12-23T23:14:16.773Z,99671.40
2022-12-23T23:16:44.680Z,99672.80
2022-12-23T23:19:13.577Z,99668.00
2022-12-23T23:21:41.265Z,99668.20
2022-12-23T23:24:09.055Z,99672.40
2022-12-23T23:26:36.938Z,99681.80
2022-12-23T23:29:04.928Z,99678.40
2022-12-23T23:31:42.058Z,99673.20
2022-12-23T23:34:12.634Z,99683.20
2022-12-23T23:36:41.548Z,99691.00
2022-12-23T23:39:12.699Z,99690.00
2022-12-23T23:41:41.324Z,99687.60
2022-12-23T23:44:09.925Z,99688.00
2022-12-23T23:46:39.019Z,99687.60
2022-12-23T23:49:06.775Z,99686.80
2022-12-23T23:51:34.946Z,99690.20
2022-12-23T23:54:02.756Z,99693.60
2022-12-23T23:56:37.522Z,99687.80
2022-12-23T23:59:08.717Z,99683.60
